Time;durP1;ratioP1;P1;durP2;ratioP2;P2;SDS_P1;SDS_P2;PMS_P1;PMS_P2;Temp;Humidity;BMP_temperature;BMP_pressure;BME280_temperature;BME280_humidity;BME280_pressure;Samples;Min_cycle;Max_cycle;Signal;HPM_P1;HPM_P2
2021/12/04 00:02:01;;;;;;;22.60;14.85;;;5.70;99.90;;;;;;5090250;28;20475;-49
2021/12/04 00:04:32;;;;;;;21.35;14.80;;;5.60;99.90;;;;;;5090302;28;20058;-48
2021/12/04 00:06:57;;;;;;;21.15;13.52;;;5.60;99.90;;;;;;5090176;28;20096;-48
2021/12/04 00:09:24;;;;;;;22.65;14.85;;;5.50;99.90;;;;;;5106201;28;20036;-49
2021/12/04 00:12:01;;;;;;;22.52;15.00;;;5.50;99.90;;;;;;5093793;28;20035;-48
2021/12/04 00:14:31;;;;;;;20.25;13.57;;;5.40;99.90;;;;;;5112905;28;20386;-50
2021/12/04 00:16:57;;;;;;;23.35;13.85;;;5.40;99.90;;;;;;5112667;28;20059;-48
2021/12/04 00:19:24;;;;;;;20.33;13.93;;;5.10;99.90;;;;;;5112746;28;20029;-49
2021/12/04 00:21:51;;;;;;;20.83;14.00;;;5.10;99.90;;;;;;5113001;28;20036;-49
2021/12/04 00:24:17;;;;;;;21.33;13.32;;;5.10;99.90;;;;;;5113030;28;20042;-48
2021/12/04 00:26:43;;;;;;;22.05;12.43;;;4.90;99.90;;;;;;5112885;28;20115;-49
2021/12/04 00:29:09;;;;;;;17.48;11.65;;;5.00;99.90;;;;;;5112686;28;20600;-49
2021/12/04 00:31:35;;;;;;;18.67;12.93;;;4.70;99.90;;;;;;5112547;28;20027;-48
2021/12/04 00:34:01;;;;;;;22.92;14.07;;;4.40;99.90;;;;;;5127688;28;20043;-48
2021/12/04 00:36:35;;;;;;;20.38;12.65;;;4.40;99.90;;;;;;5113121;28;20039;-49
2021/12/04 00:50:00;;;;;;;19.42;13.13;;;4.50;99.90;;;;;;5069953;28;20388;-48
2021/12/04 00:52:26;;;;;;;18.70;12.68;;;4.70;99.90;;;;;;5069531;28;20036;-48
2021/12/04 00:54:52;;;;;;;21.23;14.35;;;4.70;99.90;;;;;;5069677;28;20028;-47
2021/12/04 00:57:18;;;;;;;20.63;13.88;;;4.80;99.90;;;;;;5069319;28;20056;-48
2021/12/04 00:59:43;;;;;;;23.48;14.05;;;4.40;99.90;;;;;;5069423;28;20039;-48
2021/12/04 01:02:09;;;;;;;19.60;14.77;;;4.40;99.90;;;;;;5069560;28;20124;-48
2021/12/04 01:04:36;;;;;;;36.42;22.45;;;4.60;99.90;;;;;;5069334;28;20067;-48
2021/12/04 01:07:01;;;;;;;32.45;22.15;;;4.60;99.90;;;;;;5052506;28;20174;-48
2021/12/04 01:09:27;;;;;;;30.85;19.60;;;4.60;99.90;;;;;;5069388;28;20459;-48
2021/12/04 01:11:55;;;;;;;26.00;17.15;;;4.60;99.90;;;;;;5069533;28;20781;-49
2021/12/04 01:14:24;;;;;;;25.27;15.60;;;4.60;99.90;;;;;;5072508;28;20126;-48
2021/12/04 01:16:50;;;;;;;30.63;19.75;;;4.60;99.90;;;;;;5072703;28;20121;-49
2021/12/04 01:19:19;;;;;;;35.10;25.83;;;4.60;99.90;;;;;;5073011;28;20032;-48
2021/12/04 01:21:46;;;;;;;36.28;27.45;;;4.50;99.90;;;;;;5073040;28;20043;-49
2021/12/04 01:24:12;;;;;;;36.80;28.92;;;4.50;99.90;;;;;;5091250;28;20491;-48
2021/12/04 01:26:39;;;;;;;34.42;25.92;;;4.40;99.90;;;;;;5096730;28;20047;-48
2021/12/04 01:29:05;;;;;;;26.63;19.67;;;4.50;99.90;;;;;;5115994;28;20035;-49
2021/12/04 01:31:31;;;;;;;24.02;17.10;;;4.50;99.90;;;;;;5115583;28;20030;-48
2021/12/04 01:33:57;;;;;;;21.48;14.38;;;4.50;99.90;;;;;;5115780;28;20100;-48
2021/12/04 01:36:24;;;;;;;20.13;14.70;;;4.50;99.90;;;;;;5130680;27;20081;-48
2021/12/04 01:38:50;;;;;;;19.60;14.80;;;4.50;99.90;;;;;;5096628;28;20044;-48
2021/12/04 01:41:16;;;;;;;21.10;15.35;;;4.50;99.90;;;;;;5115610;28;20382;-49
2021/12/04 01:43:42;;;;;;;22.00;13.80;;;4.60;99.90;;;;;;5115507;28;20027;-48
2021/12/04 01:46:09;;;;;;;16.27;12.10;;;4.70;99.90;;;;;;5115368;28;20042;-48
2021/12/04 01:48:34;;;;;;;17.08;11.55;;;4.70;99.90;;;;;;5115891;28;20570;-49
2021/12/04 01:51:01;;;;;;;17.35;10.93;;;4.70;99.90;;;;;;5096155;28;20045;-49
2021/12/04 01:53:27;;;;;;;17.65;11.93;;;4.80;99.90;;;;;;5113233;28;20036;-49
2021/12/04 01:55:54;;;;;;;15.07;11.15;;;4.50;99.90;;;;;;5096247;28;20122;-48
2021/12/04 01:58:21;;;;;;;17.00;11.50;;;4.50;99.90;;;;;;5113210;28;20127;-48
2021/12/04 02:00:47;;;;;;;16.42;10.85;;;4.60;99.90;;;;;;5115054;28;20055;-48
2021/12/04 02:03:14;;;;;;;17.85;10.95;;;4.60;99.90;;;;;;5096133;28;20032;-49
2021/12/04 02:05:41;;;;;;;16.52;11.10;;;4.40;99.90;;;;;;5129856;27;20076;-49
2021/12/04 02:08:08;;;;;;;19.30;12.50;;;4.50;99.90;;;;;;5113060;28;20103;-48
2021/12/04 02:10:35;;;;;;;17.13;11.88;;;4.50;99.90;;;;;;5115021;28;20080;-49
2021/12/04 02:13:01;;;;;;;18.55;11.73;;;4.50;99.90;;;;;;5114971;28;20165;-48
2021/12/04 02:15:28;;;;;;;16.30;10.93;;;4.20;99.90;;;;;;5114500;28;20031;-48
2021/12/04 02:17:54;;;;;;;16.65;11.68;;;4.40;99.90;;;;;;5115202;28;20031;-49
2021/12/04 02:20:23;;;;;;;15.52;10.73;;;4.50;99.90;;;;;;5115053;28;20128;-49
2021/12/04 02:22:49;;;;;;;17.67;11.77;;;4.40;99.90;;;;;;5114942;28;20020;-48
2021/12/04 02:25:16;;;;;;;15.68;11.70;;;4.40;99.90;;;;;;5114681;28;20035;-48
2021/12/04 02:27:42;;;;;;;15.40;11.05;;;4.50;99.90;;;;;;5114539;28;20494;-48
2021/12/04 02:30:11;;;;;;;19.33;11.55;;;4.50;99.90;;;;;;5115017;28;20024;-48
2021/12/04 02:32:37;;;;;;;21.23;12.30;;;4.50;99.90;;;;;;5129430;27;20036;-48
2021/12/04 02:35:04;;;;;;;19.33;11.13;;;4.50;99.90;;;;;;5114714;27;20023;-48
2021/12/04 02:37:32;;;;;;;17.17;11.48;;;4.50;99.90;;;;;;5114558;28;20463;-48
2021/12/04 02:39:59;;;;;;;16.63;11.60;;;4.50;99.90;;;;;;5112365;28;20118;-48
2021/12/04 02:42:28;;;;;;;17.27;12.07;;;4.40;99.90;;;;;;5114706;28;20401;-48
2021/12/04 02:44:54;;;;;;;17.42;11.55;;;4.40;99.90;;;;;;5119128;27;20088;-48
2021/12/04 02:47:20;;;;;;;20.48;10.85;;;4.40;99.90;;;;;;5114183;28;20032;-48
2021/12/04 02:49:46;;;;;;;17.05;11.82;;;4.50;99.90;;;;;;5114384;28;20032;-48
2021/12/04 02:52:14;;;;;;;19.23;12.02;;;4.60;99.90;;;;;;5114509;28;20024;-48
2021/12/04 02:54:40;;;;;;;20.67;11.13;;;4.80;99.90;;;;;;5113974;28;20035;-48
2021/12/04 02:57:08;;;;;;;15.55;9.75;;;4.90;99.90;;;;;;5114262;28;20054;-48
2021/12/04 02:59:37;;;;;;;15.38;10.23;;;4.90;99.90;;;;;;5112519;28;20042;-48
2021/12/04 03:02:05;;;;;;;14.75;10.63;;;4.90;99.90;;;;;;5114126;28;20050;-48
2021/12/04 03:04:32;;;;;;;16.15;10.60;;;5.00;99.90;;;;;;5114101;28;20175;-48
2021/12/04 03:06:58;;;;;;;13.30;9.63;;;5.00;99.90;;;;;;5113756;28;20031;-48
2021/12/04 03:09:24;;;;;;;16.08;9.55;;;5.10;99.90;;;;;;5128747;27;20039;-49
2021/12/04 03:11:50;;;;;;;14.10;8.88;;;5.00;99.90;;;;;;5113704;28;20054;-48
2021/12/04 03:14:17;;;;;;;14.45;9.38;;;5.10;99.90;;;;;;5128815;27;20036;-49
2021/12/04 03:16:43;;;;;;;15.13;8.73;;;5.10;99.90;;;;;;5113430;28;20048;-48
2021/12/04 03:19:10;;;;;;;12.23;8.10;;;5.20;99.90;;;;;;5113634;28;20030;-48
2021/12/04 03:21:38;;;;;;;14.60;8.85;;;5.30;99.90;;;;;;5128525;27;20036;-48
2021/12/04 03:24:10;;;;;;;12.25;8.65;;;5.30;99.90;;;;;;5113487;28;20085;-48
2021/12/04 03:26:38;;;;;;;;;;;5.40;99.90;;;;;;5113907;28;20096;-49
2021/12/04 03:29:07;;;;;;;21.75;8.90;;;5.40;99.90;;;;;;5111501;28;19950;-49
2021/12/04 03:42:15;;;;;;;11.52;7.72;;;5.50;99.90;;;;;;5113458;28;20039;-48
2021/12/04 03:44:41;;;;;;;15.85;8.68;;;5.60;99.90;;;;;;5113090;28;20031;-48
2021/12/04 03:47:09;;;;;;;13.00;8.82;;;5.60;99.90;;;;;;5128133;27;20126;-49
2021/12/04 03:49:35;;;;;;;11.77;8.40;;;5.60;99.90;;;;;;5113121;28;20043;-49
2021/12/04 03:52:01;;;;;;;14.23;8.43;;;5.60;99.90;;;;;;5093969;28;20122;-48
2021/12/04 03:54:28;;;;;;;12.80;8.13;;;5.60;99.90;;;;;;5110785;28;20172;-49
2021/12/04 03:57:03;;;;;;;14.00;8.48;;;5.60;99.90;;;;;;5113226;28;20035;-48
2021/12/04 03:59:29;;;;;;;11.07;8.05;;;5.60;99.90;;;;;;5112992;28;20032;-48
2021/12/04 04:01:55;;;;;;;10.95;8.00;;;5.70;99.90;;;;;;5112891;28;20028;-49
2021/12/04 04:04:20;;;;;;;15.00;9.77;;;5.50;99.90;;;;;;5094064;28;20034;-48
2021/12/04 04:06:46;;;;;;;12.30;8.32;;;5.50;99.90;;;;;;5112712;28;20118;-48
2021/12/04 04:09:12;;;;;;;14.65;8.55;;;5.50;99.90;;;;;;5112915;28;20028;-48
2021/12/04 04:11:38;;;;;;;14.13;9.27;;;5.40;99.90;;;;;;5113208;28;20028;-49
2021/12/04 04:14:05;;;;;;;12.30;7.88;;;5.40;99.90;;;;;;5076985;28;20046;-48
2021/12/04 04:16:35;;;;;;;10.98;8.27;;;5.50;99.90;;;;;;5112536;28;20097;-49
2021/12/04 04:19:03;;;;;;;14.23;8.63;;;5.50;99.90;;;;;;5112926;28;20193;-48
2021/12/04 04:21:29;;;;;;;11.88;8.00;;;5.50;99.90;;;;;;5110790;28;20032;-48
2021/12/04 04:23:55;;;;;;;14.75;8.20;;;5.40;99.90;;;;;;5112801;28;20092;-49
2021/12/04 04:26:21;;;;;;;13.68;8.75;;;5.10;99.90;;;;;;5093677;28;20088;-48
2021/12/04 04:28:47;;;;;;;16.40;9.23;;;4.80;99.90;;;;;;5112747;28;20024;-48
2021/12/04 04:31:13;;;;;;;18.80;9.60;;;4.80;99.90;;;;;;5112848;28;20490;-48
2021/12/04 04:33:42;;;;;;;14.15;10.48;;;4.90;99.90;;;;;;5113111;28;20092;-49
2021/12/04 04:36:35;;;;;;;16.45;9.82;;;5.10;99.90;;;;;;5112601;28;20028;-48
2021/12/04 05:11:55;;;;;;;18.98;12.43;;;4.40;99.90;;;;;;5070806;28;20422;-48
2021/12/04 05:14:19;;;;;;;18.85;12.60;;;4.50;99.90;;;;;;5056058;28;20439;-48
2021/12/04 05:16:51;;;;;;;22.85;13.95;;;4.70;99.90;;;;;;5060049;28;20092;-48
2021/12/04 05:19:38;;;;;;;21.58;12.48;;;4.70;99.90;;;;;;5059858;28;20467;-48
2021/12/04 05:22:05;;;;;;;17.25;12.63;;;4.80;99.90;;;;;;5057342;28;20115;-48
2021/12/04 05:24:31;;;;;;;16.63;11.65;;;4.80;99.90;;;;;;5040001;28;20033;-48
2021/12/04 05:26:57;;;;;;;15.55;11.88;;;4.90;99.90;;;;;;5073090;28;20116;-48
2021/12/04 05:29:23;;;;;;;18.02;13.10;;;4.90;99.90;;;;;;5054844;28;20132;-48
2021/12/04 05:31:50;;;;;;;24.42;15.50;;;5.00;99.90;;;;;;5032610;28;20034;-48
2021/12/04 05:34:15;;;;;;;30.85;19.88;;;4.90;99.90;;;;;;5032755;28;20473;-48
2021/12/04 05:36:41;;;;;;;27.08;18.45;;;5.00;99.90;;;;;;5016392;28;20069;-48
2021/12/04 05:39:08;;;;;;;22.45;15.63;;;5.00;99.90;;;;;;5000195;28;20037;-49
2021/12/04 05:41:33;;;;;;;17.33;13.68;;;5.00;99.90;;;;;;5065169;28;20229;-48
2021/12/04 05:44:04;;;;;;;21.30;13.27;;;5.00;99.90;;;;;;5071347;28;20033;-48
2021/12/04 05:46:37;;;;;;;17.25;12.02;;;5.10;99.90;;;;;;5070317;28;20055;-48
2021/12/04 05:49:11;;;;;;;18.35;12.13;;;5.10;99.90;;;;;;5115762;28;20032;-48
2021/12/04 05:54:07;;;;;;;15.82;11.43;;;5.10;99.90;;;;;;5114289;28;20467;-48
2021/12/04 05:56:35;;;;;;;16.30;11.65;;;5.20;99.90;;;;;;5114648;27;20028;-48
2021/12/04 05:59:02;;;;;;;21.73;13.05;;;5.30;99.90;;;;;;5114067;28;20034;-48
2021/12/04 06:01:28;;;;;;;17.17;12.63;;;5.10;99.90;;;;;;5112067;28;20051;-48
2021/12/04 06:03:54;;;;;;;16.10;12.55;;;5.20;99.90;;;;;;5114363;28;20118;-48
2021/12/04 06:06:20;;;;;;;20.23;12.25;;;5.20;99.90;;;;;;5114229;28;20126;-48
2021/12/04 06:08:46;;;;;;;18.30;13.13;;;5.20;99.90;;;;;;5095122;28;20035;-48
2021/12/04 06:11:13;;;;;;;18.30;12.48;;;4.50;99.90;;;;;;5113621;28;20067;-48
2021/12/04 06:13:39;;;;;;;19.23;12.68;;;4.30;99.90;;;;;;5113804;28;20532;-48
2021/12/04 06:16:05;;;;;;;22.95;16.15;;;4.40;99.90;;;;;;5094081;28;20047;-48
2021/12/04 06:18:32;;;;;;;23.52;17.20;;;4.30;99.90;;;;;;5061162;28;20046;-48
2021/12/04 06:23:43;;;;;;;22.17;16.30;;;4.70;99.90;;;;;;5130554;27;20614;-49
2021/12/04 06:26:09;;;;;;;23.80;16.00;;;4.80;99.90;;;;;;5131605;27;20059;-48
2021/12/04 06:28:35;;;;;;;22.23;15.98;;;5.00;99.90;;;;;;5131922;27;20085;-49
2021/12/04 06:31:01;;;;;;;21.17;15.85;;;5.10;99.90;;;;;;5131954;27;20042;-48
2021/12/04 06:33:28;;;;;;;19.73;14.73;;;5.20;99.90;;;;;;5114631;27;20541;-48
2021/12/04 06:35:54;;;;;;;25.40;18.00;;;5.30;99.90;;;;;;5131629;27;20435;-48
2021/12/04 06:38:20;;;;;;;26.38;19.25;;;5.30;99.90;;;;;;5078578;27;20067;-51
2021/12/04 06:40:47;;;;;;;28.10;18.80;;;5.40;99.90;;;;;;5129104;27;20080;-49
2021/12/04 06:43:14;;;;;;;25.35;18.85;;;5.40;99.90;;;;;;5093450;27;20054;-48
2021/12/04 06:45:47;;;;;;;21.90;17.45;;;5.40;99.90;;;;;;5094776;27;20079;-48
2021/12/04 06:48:19;;;;;;;27.70;18.92;;;5.50;99.90;;;;;;5111877;28;20093;-48
2021/12/04 06:53:25;;;;;;;51.40;30.60;;;5.60;99.90;;;;;;5112171;28;19903;-49
2021/12/04 06:55:53;;;;;;;56.38;38.50;;;5.60;99.90;;;;;;5113262;28;20088;-49
2021/12/04 06:58:20;;;;;;;35.65;25.55;;;5.80;99.90;;;;;;5110903;28;20097;-50
2021/12/04 07:00:46;;;;;;;28.27;18.98;;;5.80;99.90;;;;;;5111656;28;20020;-49
2021/12/04 07:03:12;;;;;;;27.40;18.73;;;5.90;99.90;;;;;;5113129;28;20031;-50
2021/12/04 07:05:38;;;;;;;18.85;13.75;;;6.00;99.90;;;;;;5112606;28;20036;-50
2021/12/04 07:08:05;;;;;;;19.30;14.18;;;6.00;99.90;;;;;;5109868;28;20127;-49
2021/12/04 07:10:33;;;;;;;18.25;11.93;;;6.10;99.90;;;;;;5110881;28;20051;-50
2021/12/04 07:12:59;;;;;;;14.95;10.70;;;6.10;99.90;;;;;;5112924;28;20585;-50
2021/12/04 07:15:27;;;;;;;17.95;10.98;;;6.30;99.90;;;;;;5112660;28;20044;-50
2021/12/04 07:17:53;;;;;;;15.13;10.48;;;6.20;99.90;;;;;;5113194;28;20070;-50
2021/12/04 07:20:19;;;;;;;247.52;146.40;;;6.20;99.90;;;;;;5112543;28;20042;-49
2021/12/04 07:22:45;;;;;;;23.02;15.80;;;6.50;99.90;;;;;;5111741;27;20032;-49
2021/12/04 07:25:11;;;;;;;19.42;12.25;;;6.90;99.90;;;;;;5129988;27;20034;-49
2021/12/04 07:27:36;;;;;;;22.20;15.82;;;7.50;99.90;;;;;;5062936;27;20115;-49
2021/12/04 07:30:06;;;;;;;36.65;25.92;;;7.90;99.90;;;;;;5133117;27;20055;-50
2021/12/04 07:32:32;;;;;;;41.20;27.70;;;8.80;99.90;;;;;;5132893;27;20418;-50
2021/12/04 07:34:58;;;;;;;36.85;24.27;;;10.90;99.90;;;;;;5113691;27;20042;-50
2021/12/04 07:37:24;;;;;;;34.25;25.08;;;12.80;99.90;;;;;;5133082;27;20027;-50
2021/12/04 07:39:51;;;;;;;32.53;24.15;;;14.20;99.90;;;;;;5113495;27;20505;-49
2021/12/04 07:42:16;;;;;;;29.38;22.63;;;15.00;99.90;;;;;;5132865;27;20023;-50
2021/12/04 07:44:42;;;;;;;26.00;20.15;;;15.90;99.90;;;;;;5096260;27;20031;-50
2021/12/04 07:47:08;;;;;;;18.73;16.20;;;16.40;95.40;;;;;;5132739;27;20122;-50
2021/12/04 07:49:37;;;;;;;25.08;18.23;;;16.10;91.60;;;;;;5131291;27;20398;-50
2021/12/04 07:52:07;;;;;;;25.58;18.70;;;16.10;92.00;;;;;;5132657;27;20038;-51
2021/12/04 07:54:34;;;;;;;19.95;15.10;;;17.00;90.40;;;;;;5132686;27;20091;-50
2021/12/04 07:57:00;;;;;;;18.73;15.52;;;16.30;90.20;;;;;;5132796;27;20019;-50
2021/12/04 07:59:26;;;;;;;17.98;14.40;;;16.50;88.90;;;;;;5130216;27;20513;-50
2021/12/04 08:01:52;;;;;;;19.77;15.43;;;16.70;86.50;;;;;;5132708;27;20084;-50
2021/12/04 08:04:19;;;;;;;16.25;12.85;;;17.40;86.70;;;;;;5132475;27;20027;-50
2021/12/04 08:06:45;;;;;;;16.85;12.98;;;17.70;83.30;;;;;;5132449;27;20047;-49
2021/12/04 08:09:10;;;;;;;16.17;12.23;;;18.20;81.40;;;;;;5124280;27;20132;-51
2021/12/04 08:11:37;;;;;;;19.35;16.52;;;17.10;82.00;;;;;;5089935;28;20450;-51
2021/12/04 08:14:03;;;;;;;20.77;16.40;;;17.80;79.90;;;;;;5111257;28;20072;-50
2021/12/04 08:16:32;;;;;;;16.17;13.50;;;18.30;80.60;;;;;;5111244;28;20051;-50
2021/12/04 08:18:59;;;;;;;17.40;12.90;;;17.70;77.80;;;;;;5111127;28;20038;-50
2021/12/04 08:21:25;;;;;;;15.98;14.20;;;18.30;77.50;;;;;;5109953;28;20036;-50
2021/12/04 08:23:51;;;;;;;15.10;12.00;;;18.50;76.80;;;;;;5095988;28;20042;-51
2021/12/04 08:26:18;;;;;;;15.80;13.10;;;17.10;75.70;;;;;;5109188;27;20032;-48
2021/12/04 08:28:44;;;;;;;16.52;12.43;;;16.80;77.80;;;;;;5116964;27;20012;-49
2021/12/04 08:31:11;;;;;;;12.65;11.00;;;17.40;75.80;;;;;;5121665;27;20025;-48
2021/12/04 08:33:37;;;;;;;14.13;10.70;;;17.00;74.30;;;;;;5136242;27;20036;-49
2021/12/04 08:36:04;;;;;;;16.63;13.23;;;16.60;86.90;;;;;;5117069;27;20038;-48
2021/12/04 08:38:31;;;;;;;16.23;13.18;;;;;;;;;;5119053;27;20110;-49
2021/12/04 08:40:57;;;;;;;12.82;11.00;;;17.40;76.90;;;;;;5113794;27;20427;-48
2021/12/04 08:43:22;;;;;;;17.85;13.07;;;18.00;74.80;;;;;;5082778;28;20081;-48
2021/12/04 08:45:48;;;;;;;23.50;17.85;;;17.60;73.50;;;;;;5115435;28;20482;-49
2021/12/04 08:48:14;;;;;;;17.52;14.13;;;18.20;75.00;;;;;;5113338;28;20043;-49
2021/12/04 08:50:41;;;;;;;21.73;12.30;;;18.90;77.30;;;;;;5113088;28;20078;-48
2021/12/04 08:53:08;;;;;;;16.92;12.93;;;18.90;76.60;;;;;;5115478;27;20023;-48
2021/12/04 08:55:37;;;;;;;14.25;12.77;;;18.30;72.20;;;;;;5115571;28;20387;-47
2021/12/04 08:58:05;;;;;;;15.07;13.45;;;18.40;71.20;;;;;;5114591;28;20154;-49
2021/12/04 09:00:39;;;;;;;14.27;12.77;;;18.30;72.60;;;;;;5115051;28;20080;-49
2021/12/04 09:03:06;;;;;;;17.73;14.10;;;19.30;90.30;;;;;;5115514;28;20032;-48
2021/12/04 09:05:33;;;;;;;25.35;14.90;;;;;;;;;;5115147;28;20020;-49
2021/12/04 09:07:59;;;;;;;16.00;13.30;;;19.40;70.20;;;;;;5115071;28;20070;-48
2021/12/04 09:10:25;;;;;;;15.95;13.52;;;20.10;70.80;;;;;;5112967;28;20083;-49
2021/12/04 09:12:52;;;;;;;14.50;13.00;;;20.40;70.90;;;;;;5112807;28;20449;-49
2021/12/04 09:15:23;;;;;;;13.80;11.55;;;19.80;69.80;;;;;;5112302;28;20490;-49
2021/12/04 09:17:49;;;;;;;14.05;12.70;;;19.60;69.70;;;;;;5115079;28;20024;-48
2021/12/04 09:20:16;;;;;;;15.63;13.88;;;19.10;69.10;;;;;;5114770;28;20036;-48
2021/12/04 09:22:44;;;;;;;13.70;12.50;;;19.30;70.10;;;;;;5114839;28;20036;-48
2021/12/04 09:25:16;;;;;;;18.75;17.15;;;19.80;70.40;;;;;;5114677;28;20134;-48
2021/12/04 10:01:09;;;;;;;27.73;25.33;;;18.70;71.40;;;;;;5031435;28;20048;-49
2021/12/04 10:11:23;;;;;;;24.15;21.92;;;17.50;73.70;;;;;;5036420;28;20555;-49
2021/12/04 10:20:39;;;;;;;21.85;19.92;;;18.20;72.70;;;;;;5113899;28;20035;-48
2021/12/04 10:33:58;;;;;;;17.70;16.17;;;15.70;75.70;;;;;;5091088;28;20035;-49
2021/12/04 10:36:33;;;;;;;16.63;14.85;;;16.40;75.10;;;;;;5089849;28;20032;-49
2021/12/04 10:39:00;;;;;;;16.02;14.52;;;16.70;75.50;;;;;;5090665;28;20107;-48
2021/12/04 10:41:35;;;;;;;13.98;12.55;;;17.20;75.00;;;;;;5090369;28;20064;-49
2021/12/04 10:44:22;;;;;;;15.18;13.68;;;17.60;75.70;;;;;;5090538;28;20028;-49
2021/12/04 10:47:05;;;;;;;16.50;14.95;;;17.20;75.60;;;;;;5089359;28;20036;-48
2021/12/04 10:49:44;;;;;;;14.95;13.30;;;17.30;75.60;;;;;;5090274;28;20548;-48
2021/12/04 11:03:54;;;;;;;21.23;14.75;;;15.90;76.40;;;;;;5069750;28;20109;-49
2021/12/04 11:28:47;;;;;;;16.75;13.48;;;15.20;80.00;;;;;;5078581;28;20141;-49
2021/12/04 11:44:09;;;;;;;15.60;13.73;;;14.00;83.20;;;;;;5050422;28;20040;-48
2021/12/04 11:46:43;;;;;;;19.05;14.30;;;14.10;83.80;;;;;;5050180;28;20127;-48
2021/12/04 11:49:21;;;;;;;14.20;12.05;;;13.60;85.30;;;;;;5050358;28;20469;-48
2021/12/04 11:52:04;;;;;;;16.23;14.23;;;12.90;86.20;;;;;;5033922;28;20456;-49
2021/12/04 11:54:43;;;;;;;14.80;10.70;;;12.40;88.60;;;;;;5017331;28;20053;-49
2021/12/04 11:57:11;;;;;;;17.58;14.38;;;11.50;90.30;;;;;;5049872;28;20021;-50
2021/12/04 11:59:40;;;;;;;16.98;14.48;;;12.10;90.60;;;;;;5050043;28;20040;-50
2021/12/04 12:02:10;;;;;;;19.38;13.20;;;11.80;91.00;;;;;;5050205;28;20103;-50
2021/12/04 12:04:44;;;;;;;20.08;14.05;;;11.40;91.30;;;;;;5033274;28;20044;-50
2021/12/04 12:07:19;;;;;;;21.75;13.45;;;11.50;91.60;;;;;;5050038;28;20080;-50
2021/12/04 12:09:47;;;;;;;26.02;16.17;;;10.80;92.60;;;;;;5049811;28;20126;-50
2021/12/04 12:12:16;;;;;;;20.70;14.02;;;11.10;92.80;;;;;;5050087;28;20025;-50
2021/12/04 12:14:55;;;;;;;20.20;12.35;;;10.80;93.20;;;;;;5110930;28;20078;-51
2021/12/04 12:17:37;;;;;;;17.60;10.50;;;10.60;93.60;;;;;;5112806;28;20043;-51
2021/12/04 12:20:08;;;;;;;20.60;15.35;;;;;;;;;;5093712;28;20070;-50
2021/12/04 12:25:34;;;;;;;21.15;12.77;;;10.20;95.20;;;;;;5112817;28;20115;-49
2021/12/04 12:34:12;;;;;;;38.88;25.33;;;10.60;95.20;;;;;;5113035;28;20038;-49
2021/12/04 12:36:38;;;;;;;48.05;24.63;;;10.90;94.80;;;;;;5113125;28;20424;-50
2021/12/04 12:39:07;;;;;;;34.80;22.77;;;10.50;95.00;;;;;;5112649;28;20031;-50
2021/12/04 12:41:49;;;;;;;42.03;21.83;;;10.60;95.40;;;;;;5112821;28;20394;-49
2021/12/04 12:44:26;;;;;;;20.75;12.43;;;10.30;95.80;;;;;;5110597;28;20585;-50
2021/12/04 12:47:04;;;;;;;37.03;21.90;;;9.90;95.80;;;;;;5112577;28;20036;-50
2021/12/04 12:49:38;;;;;;;25.83;17.95;;;10.10;95.90;;;;;;5112690;28;20122;-51
2021/12/04 12:52:05;;;;;;;19.50;13.93;;;10.20;96.20;;;;;;5112569;28;20416;-49
2021/12/04 12:54:41;;;;;;;31.33;18.25;;;10.10;96.20;;;;;;5112400;28;20098;-50
2021/12/04 12:57:17;;;;;;;23.05;15.15;;;10.30;96.50;;;;;;5112592;28;20028;-50
2021/12/04 12:59:58;;;;;;;33.22;21.67;;;10.00;96.70;;;;;;5112393;28;20037;-50
2021/12/04 13:13:53;;;;;;;27.67;19.40;;;11.30;95.60;;;;;;5093350;28;20066;-49
2021/12/04 13:16:22;;;;;;;26.40;17.38;;;11.20;95.80;;;;;;5093235;28;20067;-51
2021/12/04 13:18:58;;;;;;;45.85;26.35;;;11.50;95.80;;;;;;5093275;28;20515;-50
2021/12/04 13:21:25;;;;;;;33.85;23.35;;;11.70;95.70;;;;;;5093242;28;20494;-49
2021/12/04 13:23:54;;;;;;;47.83;25.00;;;12.20;96.30;;;;;;5092639;28;20062;-49
2021/12/04 13:26:28;;;;;;;27.92;18.70;;;11.40;95.20;;;;;;5090315;28;20161;-50
2021/12/04 13:28:54;;;;;;;31.77;20.77;;;11.50;95.30;;;;;;5075979;28;20115;-49
2021/12/04 13:31:20;;;;;;;27.83;17.70;;;11.30;95.40;;;;;;5072503;28;20175;-50
2021/12/04 13:33:50;;;;;;;18.33;12.50;;;11.00;96.00;;;;;;5072756;28;20072;-49
2021/12/04 13:36:19;;;;;;;25.30;14.32;;;10.90;96.10;;;;;;5072712;28;20407;-51
2021/12/04 13:38:45;;;;;;;41.47;24.58;;;10.60;96.30;;;;;;5072650;28;20531;-48
2021/12/04 13:41:12;;;;;;;74.70;54.22;;;10.50;97.10;;;;;;5077898;28;20048;-49
2021/12/04 13:43:39;;;;;;;19.90;12.10;;;10.80;96.80;;;;;;5092874;28;20059;-50
2021/12/04 13:46:05;;;;;;;19.20;13.75;;;10.40;96.30;;;;;;5092664;28;20517;-50
2021/12/04 13:48:33;;;;;;;19.35;12.90;;;10.40;96.70;;;;;;5075688;28;20040;-50
2021/12/04 13:51:00;;;;;;;17.95;11.88;;;10.10;97.00;;;;;;5092015;28;20048;-49
2021/12/04 13:53:29;;;;;;;23.98;14.65;;;10.10;97.20;;;;;;5074481;28;20029;-49
2021/12/04 13:56:05;;;;;;;21.02;15.07;;;10.10;97.30;;;;;;5091364;28;20036;-50
2021/12/04 13:58:31;;;;;;;20.67;17.00;;;10.20;97.40;;;;;;5091413;28;20376;-50
2021/12/04 14:01:03;;;;;;;20.77;16.70;;;10.20;97.50;;;;;;5091326;28;20056;-51
2021/12/04 14:03:31;;;;;;;22.17;15.82;;;10.10;97.50;;;;;;5113641;28;20467;-49
2021/12/04 14:05:57;;;;;;;24.33;14.82;;;10.10;97.50;;;;;;5113922;28;20524;-51
2021/12/04 14:08:23;;;;;;;22.20;16.85;;;9.80;98.30;;;;;;5094916;28;20032;-50
2021/12/04 14:10:50;;;;;;;23.00;16.17;;;10.00;98.60;;;;;;5111775;28;20108;-51
2021/12/04 14:13:25;;;;;;;24.25;16.45;;;10.00;98.40;;;;;;5114059;28;20119;-51
2021/12/04 14:15:55;;;;;;;23.42;16.35;;;10.00;98.30;;;;;;5113721;28;20509;-50
2021/12/04 14:18:22;;;;;;;20.25;15.13;;;10.10;98.90;;;;;;5095006;28;20055;-50
2021/12/04 14:20:54;;;;;;;26.25;17.63;;;10.30;98.30;;;;;;5113524;28;20479;-49
2021/12/04 14:23:23;;;;;;;24.08;16.73;;;10.20;98.70;;;;;;5113947;28;20113;-51
2021/12/04 14:25:54;;;;;;;24.67;17.33;;;10.40;98.50;;;;;;5113654;28;20035;-50
2021/12/04 14:28:34;;;;;;;25.63;18.13;;;10.40;98.50;;;;;;5113723;28;20039;-51
2021/12/04 14:31:00;;;;;;;26.02;19.65;;;10.50;98.30;;;;;;5077426;28;20071;-51
2021/12/04 14:33:26;;;;;;;32.00;20.85;;;10.00;98.70;;;;;;5043607;28;20087;-50
2021/12/04 14:35:54;;;;;;;54.83;36.60;;;10.10;98.70;;;;;;5094220;28;20046;-51
2021/12/04 14:38:26;;;;;;;58.10;35.08;;;10.20;98.80;;;;;;5111276;28;20122;-49
2021/12/04 14:40:59;;;;;;;105.43;80.15;;;9.90;99.00;;;;;;5113696;28;20081;-49
2021/12/04 14:43:27;;;;;;;60.35;37.17;;;9.70;99.50;;;;;;5113403;28;20043;-51
2021/12/04 14:45:56;;;;;;;63.90;39.10;;;9.40;99.90;;;;;;5113224;28;20103;-51
2021/12/04 14:48:33;;;;;;;52.28;34.38;;;9.30;99.90;;;;;;5113657;28;20102;-49
2021/12/04 14:51:06;;;;;;;40.13;28.65;;;9.10;99.90;;;;;;5113144;28;20051;-50
2021/12/04 14:53:38;;;;;;;37.45;25.33;;;9.30;99.90;;;;;;5091990;28;20088;-49
2021/12/04 14:56:07;;;;;;;33.03;22.35;;;9.20;99.90;;;;;;5113138;28;20439;-51
2021/12/04 14:58:34;;;;;;;40.78;25.33;;;9.00;99.90;;;;;;5060678;28;20093;-50
2021/12/04 15:01:05;;;;;;;44.83;29.10;;;9.00;99.90;;;;;;5112939;28;20052;-49
2021/12/04 15:03:43;;;;;;;48.78;31.10;;;8.90;99.90;;;;;;5113055;28;20107;-51
2021/12/04 15:06:13;;;;;;;46.90;27.48;;;8.90;99.90;;;;;;5112836;28;20027;-49
2021/12/04 15:09:04;;;;;;;41.47;25.58;;;8.80;99.90;;;;;;5112879;28;20040;-48
2021/12/04 15:11:34;;;;;;;35.55;22.02;;;8.80;99.90;;;;;;5113143;28;20472;-49
2021/12/04 15:14:14;;;;;;;35.45;25.60;;;8.60;99.90;;;;;;5112699;28;20040;-50
2021/12/04 15:16:50;;;;;;;36.42;25.13;;;8.50;99.90;;;;;;5112674;28;20043;-51
2021/12/04 15:19:27;;;;;;;37.15;26.55;;;8.30;99.90;;;;;;5112669;28;20031;-48
2021/12/04 15:21:58;;;;;;;39.90;28.88;;;8.30;99.90;;;;;;5112731;28;20036;-49
2021/12/04 15:24:28;;;;;;;83.40;52.38;;;8.40;99.90;;;;;;5112678;28;20062;-49
2021/12/04 15:27:03;;;;;;;62.45;42.38;;;8.40;99.90;;;;;;5112556;28;20042;-50
2021/12/04 15:29:31;;;;;;;65.90;42.92;;;8.30;99.90;;;;;;5112435;28;20035;-51
2021/12/04 15:32:00;;;;;;;72.47;42.75;;;8.40;99.90;;;;;;5111929;28;20368;-50
2021/12/04 15:34:57;;;;;;;76.38;47.67;;;8.40;99.90;;;;;;5112393;28;20391;-49
2021/12/04 15:37:36;;;;;;;68.63;42.53;;;8.50;99.90;;;;;;5111634;28;20051;-49
2021/12/04 15:40:05;;;;;;;71.53;44.15;;;8.50;99.90;;;;;;5112401;28;20031;-51
2021/12/04 15:42:49;;;;;;;88.82;51.55;;;8.50;99.90;;;;;;5112488;28;20036;-51
2021/12/04 15:48:19;;;;;;;115.97;59.67;;;8.60;99.90;;;;;;5112351;28;20085;-50
2021/12/04 15:53:36;;;;;;;75.78;47.80;;;8.60;99.90;;;;;;5069114;28;20513;-51
2021/12/04 15:56:02;;;;;;;76.93;49.85;;;8.80;99.90;;;;;;5068840;28;20033;-50
2021/12/04 15:58:36;;;;;;;79.25;50.65;;;8.80;99.90;;;;;;5085182;28;20044;-50